sensor_id;sensor_type;location;lat;lon;timestamp;temperature;humidity
39815;DHT22;25495;45.948;4.568;2022-10-31T00:02:06;15.20;99.90
39815;DHT22;25495;45.948;4.568;2022-10-31T00:04:31;15.20;99.90
39815;DHT22;25495;45.948;4.568;2022-10-31T00:06:57;15.10;99.90
39815;DHT22;25495;45.948;4.568;2022-10-31T00:09:23;15.10;99.90
39815;DHT22;25495;45.948;4.568;2022-10-31T00:11:49;15.10;99.90
39815;DHT22;25495;45.948;4.568;2022-10-31T00:14:14;15.10;99.90
39815;DHT22;25495;45.948;4.568;2022-10-31T00:16:40;15.10;99.90
39815;DHT22;25495;45.948;4.568;2022-10-31T00:19:07;15.10;99.90
39815;DHT22;25495;45.948;4.568;2022-10-31T00:21:34;15.10;99.90
39815;DHT22;25495;45.948;4.568;2022-10-31T00:24:01;15.00;99.90
39815;DHT22;25495;45.948;4.568;2022-10-31T00:26:30;15.00;99.90
39815;DHT22;25495;45.948;4.568;2022-10-31T00:28:57;15.00;99.90
39815;DHT22;25495;45.948;4.568;2022-10-31T00:31:23;15.00;99.90
39815;DHT22;25495;45.948;4.568;2022-10-31T00:33:49;15.00;99.90
39815;DHT22;25495;45.948;4.568;2022-10-31T00:36:19;15.00;99.90
39815;DHT22;25495;45.948;4.568;2022-10-31T00:38:46;15.00;99.90
39815;DHT22;25495;45.948;4.568;2022-10-31T00:41:14;15.00;99.90
39815;DHT22;25495;45.948;4.568;2022-10-31T00:43:40;15.10;99.90
39815;DHT22;25495;45.948;4.568;2022-10-31T00:46:06;15.00;99.90
39815;DHT22;25495;45.948;4.568;2022-10-31T00:48:32;15.00;99.90
39815;DHT22;25495;45.948;4.568;2022-10-31T00:50:58;15.00;99.90
39815;DHT22;25495;45.948;4.568;2022-10-31T00:53:24;15.00;99.90
39815;DHT22;25495;45.948;4.568;2022-10-31T00:55:50;15.00;99.90
39815;DHT22;25495;45.948;4.568;2022-10-31T00:58:15;15.00;99.90
39815;DHT22;25495;45.948;4.568;2022-10-31T01:00:41;15.00;99.90
39815;DHT22;25495;45.948;4.568;2022-10-31T01:03:07;15.00;99.90
39815;DHT22;25495;45.948;4.568;2022-10-31T01:05:33;15.00;99.90
39815;DHT22;25495;45.948;4.568;2022-10-31T01:07:59;14.90;99.90
39815;DHT22;25495;45.948;4.568;2022-10-31T01:10:25;15.00;99.90
39815;DHT22;25495;45.948;4.568;2022-10-31T01:12:50;14.90;99.90
39815;DHT22;25495;45.948;4.568;2022-10-31T01:15:19;14.90;99.90
39815;DHT22;25495;45.948;4.568;2022-10-31T01:17:46;14.90;99.90
39815;DHT22;25495;45.948;4.568;2022-10-31T01:20:14;14.90;99.90
39815;DHT22;25495;45.948;4.568;2022-10-31T01:22:39;14.80;99.90
39815;DHT22;25495;45.948;4.568;2022-10-31T01:25:06;14.80;99.90
39815;DHT22;25495;45.948;4.568;2022-10-31T01:27:32;14.80;99.90
39815;DHT22;25495;45.948;4.568;2022-10-31T01:29:58;14.70;99.90
39815;DHT22;25495;45.948;4.568;2022-10-31T01:32:24;14.70;99.90
39815;DHT22;25495;45.948;4.568;2022-10-31T01:34:50;14.60;99.90
39815;DHT22;25495;45.948;4.568;2022-10-31T01:37:15;14.60;99.90
39815;DHT22;25495;45.948;4.568;2022-10-31T01:39:41;14.50;99.90
39815;DHT22;25495;45.948;4.568;2022-10-31T01:42:18;14.60;99.90
39815;DHT22;25495;45.948;4.568;2022-10-31T01:47:18;14.60;99.90
39815;DHT22;25495;45.948;4.568;2022-10-31T01:49:53;14.60;99.90
39815;DHT22;25495;45.948;4.568;2022-10-31T01:52:42;14.60;99.90
39815;DHT22;25495;45.948;4.568;2022-10-31T01:55:15;14.60;99.90
39815;DHT22;25495;45.948;4.568;2022-10-31T01:57:45;14.60;99.90
39815;DHT22;25495;45.948;4.568;2022-10-31T02:00:12;14.60;99.90
39815;DHT22;25495;45.948;4.568;2022-10-31T02:02:39;14.60;99.90
39815;DHT22;25495;45.948;4.568;2022-10-31T02:05:08;14.60;99.90
39815;DHT22;25495;45.948;4.568;2022-10-31T02:08:01;14.60;99.90
39815;DHT22;25495;45.948;4.568;2022-10-31T02:10:24;14.60;99.90
39815;DHT22;25495;45.948;4.568;2022-10-31T02:12:52;14.60;99.90
39815;DHT22;25495;45.948;4.568;2022-10-31T02:15:19;14.60;99.90
39815;DHT22;25495;45.948;4.568;2022-10-31T02:17:45;14.50;99.90
39815;DHT22;25495;45.948;4.568;2022-10-31T02:20:18;14.50;99.90
39815;DHT22;25495;45.948;4.568;2022-10-31T02:28:34;14.40;99.90
39815;DHT22;25495;45.948;4.568;2022-10-31T02:33:58;14.40;99.90
39815;DHT22;25495;45.948;4.568;2022-10-31T02:36:32;14.40;99.90
39815;DHT22;25495;45.948;4.568;2022-10-31T02:39:25;14.50;99.90
39815;DHT22;25495;45.948;4.568;2022-10-31T02:42:08;14.50;99.90
39815;DHT22;25495;45.948;4.568;2022-10-31T02:44:44;14.50;99.90
39815;DHT22;25495;45.948;4.568;2022-10-31T02:47:16;14.40;99.90
39815;DHT22;25495;45.948;4.568;2022-10-31T02:49:59;14.40;99.90
39815;DHT22;25495;45.948;4.568;2022-10-31T02:52:28;14.40;99.90
39815;DHT22;25495;45.948;4.568;2022-10-31T02:54:54;14.30;99.90
39815;DHT22;25495;45.948;4.568;2022-10-31T02:57:27;14.30;99.90
39815;DHT22;25495;45.948;4.568;2022-10-31T03:00:02;14.30;99.90
39815;DHT22;25495;45.948;4.568;2022-10-31T03:11:03;14.10;99.90
39815;DHT22;25495;45.948;4.568;2022-10-31T03:18:32;14.00;99.90
39815;DHT22;25495;45.948;4.568;2022-10-31T03:21:01;14.00;99.90
39815;DHT22;25495;45.948;4.568;2022-10-31T03:23:30;14.00;99.90
39815;DHT22;25495;45.948;4.568;2022-10-31T03:25:58;14.00;99.90
39815;DHT22;25495;45.948;4.568;2022-10-31T03:28:33;14.00;99.90
39815;DHT22;25495;45.948;4.568;2022-10-31T03:31:00;14.00;99.90
39815;DHT22;25495;45.948;4.568;2022-10-31T03:33:28;13.90;99.90
39815;DHT22;25495;45.948;4.568;2022-10-31T03:35:57;13.90;99.90
39815;DHT22;25495;45.948;4.568;2022-10-31T03:38:25;13.90;99.90
39815;DHT22;25495;45.948;4.568;2022-10-31T03:40:54;13.90;99.90
39815;DHT22;25495;45.948;4.568;2022-10-31T03:43:27;13.90;99.90
39815;DHT22;25495;45.948;4.568;2022-10-31T03:45:54;13.80;99.90
39815;DHT22;25495;45.948;4.568;2022-10-31T03:48:20;13.80;99.90
39815;DHT22;25495;45.948;4.568;2022-10-31T03:51:01;13.80;99.90
39815;DHT22;25495;45.948;4.568;2022-10-31T03:53:34;13.90;99.90
39815;DHT22;25495;45.948;4.568;2022-10-31T03:56:11;13.90;99.90
39815;DHT22;25495;45.948;4.568;2022-10-31T03:59:02;13.90;99.90
39815;DHT22;25495;45.948;4.568;2022-10-31T04:01:32;13.90;99.90
39815;DHT22;25495;45.948;4.568;2022-10-31T04:04:00;13.90;99.90
39815;DHT22;25495;45.948;4.568;2022-10-31T04:06:27;13.90;99.90
39815;DHT22;25495;45.948;4.568;2022-10-31T04:08:59;14.00;99.90
39815;DHT22;25495;45.948;4.568;2022-10-31T04:11:35;14.00;99.90
39815;DHT22;25495;45.948;4.568;2022-10-31T04:14:04;14.00;99.90
39815;DHT22;25495;45.948;4.568;2022-10-31T04:16:30;13.90;99.90
39815;DHT22;25495;45.948;4.568;2022-10-31T04:18:56;13.90;99.90
39815;DHT22;25495;45.948;4.568;2022-10-31T04:21:27;13.90;99.90
39815;DHT22;25495;45.948;4.568;2022-10-31T04:23:57;13.80;99.90
39815;DHT22;25495;45.948;4.568;2022-10-31T04:26:22;13.80;99.90
39815;DHT22;25495;45.948;4.568;2022-10-31T04:28:48;13.80;99.90
39815;DHT22;25495;45.948;4.568;2022-10-31T04:31:14;13.70;99.90
39815;DHT22;25495;45.948;4.568;2022-10-31T04:33:40;13.60;99.90
39815;DHT22;25495;45.948;4.568;2022-10-31T04:36:06;13.50;99.90
39815;DHT22;25495;45.948;4.568;2022-10-31T04:38:32;13.50;99.90
39815;DHT22;25495;45.948;4.568;2022-10-31T04:40:58;13.50;99.90
39815;DHT22;25495;45.948;4.568;2022-10-31T04:43:24;13.50;99.90
39815;DHT22;25495;45.948;4.568;2022-10-31T04:45:50;13.50;99.90
39815;DHT22;25495;45.948;4.568;2022-10-31T04:48:15;13.50;99.90
39815;DHT22;25495;45.948;4.568;2022-10-31T04:50:41;13.40;99.90
39815;DHT22;25495;45.948;4.568;2022-10-31T04:53:07;13.40;99.90
39815;DHT22;25495;45.948;4.568;2022-10-31T04:55:33;13.40;99.90
39815;DHT22;25495;45.948;4.568;2022-10-31T04:57:58;13.40;99.90
39815;DHT22;25495;45.948;4.568;2022-10-31T05:00:24;13.40;99.90
39815;DHT22;25495;45.948;4.568;2022-10-31T05:02:55;13.40;99.90
39815;DHT22;25495;45.948;4.568;2022-10-31T05:05:21;13.40;99.90
39815;DHT22;25495;45.948;4.568;2022-10-31T05:07:48;13.30;99.90
39815;DHT22;25495;45.948;4.568;2022-10-31T05:10:19;13.30;99.90
39815;DHT22;25495;45.948;4.568;2022-10-31T05:12:58;13.40;99.90
39815;DHT22;25495;45.948;4.568;2022-10-31T05:15:26;13.30;99.90
39815;DHT22;25495;45.948;4.568;2022-10-31T05:17:52;13.30;99.90
39815;DHT22;25495;45.948;4.568;2022-10-31T05:20:20;13.20;99.90
39815;DHT22;25495;45.948;4.568;2022-10-31T05:22:49;13.30;99.90
39815;DHT22;25495;45.948;4.568;2022-10-31T05:25:15;13.30;99.90
39815;DHT22;25495;45.948;4.568;2022-10-31T05:27:43;13.30;99.90
39815;DHT22;25495;45.948;4.568;2022-10-31T05:30:11;13.40;99.90
39815;DHT22;25495;45.948;4.568;2022-10-31T05:32:44;13.30;99.90
39815;DHT22;25495;45.948;4.568;2022-10-31T05:35:14;13.30;99.90
39815;DHT22;25495;45.948;4.568;2022-10-31T05:37:40;13.20;99.90
39815;DHT22;25495;45.948;4.568;2022-10-31T05:40:08;13.10;99.90
39815;DHT22;25495;45.948;4.568;2022-10-31T05:42:35;13.10;99.90
39815;DHT22;25495;45.948;4.568;2022-10-31T05:45:01;13.10;99.90
39815;DHT22;25495;45.948;4.568;2022-10-31T05:47:27;13.20;99.90
39815;DHT22;25495;45.948;4.568;2022-10-31T05:49:52;13.20;99.90
39815;DHT22;25495;45.948;4.568;2022-10-31T05:52:18;13.20;99.90
39815;DHT22;25495;45.948;4.568;2022-10-31T05:54:44;13.20;99.90
39815;DHT22;25495;45.948;4.568;2022-10-31T05:57:10;13.30;99.90
39815;DHT22;25495;45.948;4.568;2022-10-31T05:59:35;13.20;99.90
39815;DHT22;25495;45.948;4.568;2022-10-31T06:02:01;13.20;99.90
39815;DHT22;25495;45.948;4.568;2022-10-31T06:04:27;13.30;99.90
39815;DHT22;25495;45.948;4.568;2022-10-31T06:06:53;13.30;99.90
39815;DHT22;25495;45.948;4.568;2022-10-31T06:09:19;13.30;99.90
39815;DHT22;25495;45.948;4.568;2022-10-31T06:11:44;13.40;99.90
39815;DHT22;25495;45.948;4.568;2022-10-31T06:14:10;13.50;99.90
39815;DHT22;25495;45.948;4.568;2022-10-31T06:16:36;13.60;99.90
39815;DHT22;25495;45.948;4.568;2022-10-31T06:19:02;13.50;99.90
39815;DHT22;25495;45.948;4.568;2022-10-31T06:21:28;13.70;99.90
39815;DHT22;25495;45.948;4.568;2022-10-31T06:23:53;13.70;99.90
39815;DHT22;25495;45.948;4.568;2022-10-31T06:26:19;13.70;99.90
39815;DHT22;25495;45.948;4.568;2022-10-31T06:28:45;13.70;99.90
39815;DHT22;25495;45.948;4.568;2022-10-31T06:31:10;13.70;99.90
39815;DHT22;25495;45.948;4.568;2022-10-31T06:33:36;13.70;99.90
39815;DHT22;25495;45.948;4.568;2022-10-31T06:36:02;13.60;99.90
39815;DHT22;25495;45.948;4.568;2022-10-31T06:38:28;13.50;99.90
39815;DHT22;25495;45.948;4.568;2022-10-31T06:40:54;13.40;99.90
39815;DHT22;25495;45.948;4.568;2022-10-31T06:43:21;13.40;99.90
39815;DHT22;25495;45.948;4.568;2022-10-31T06:45:47;13.30;99.90
39815;DHT22;25495;45.948;4.568;2022-10-31T06:48:13;13.40;99.90
39815;DHT22;25495;45.948;4.568;2022-10-31T06:50:39;13.50;99.90
39815;DHT22;25495;45.948;4.568;2022-10-31T06:53:05;13.60;99.90
39815;DHT22;25495;45.948;4.568;2022-10-31T06:55:31;13.60;99.90
39815;DHT22;25495;45.948;4.568;2022-10-31T06:58:00;13.60;99.90
39815;DHT22;25495;45.948;4.568;2022-10-31T07:00:28;13.60;99.90
39815;DHT22;25495;45.948;4.568;2022-10-31T07:02:59;13.60;99.90
39815;DHT22;25495;45.948;4.568;2022-10-31T07:05:26;13.60;99.90
39815;DHT22;25495;45.948;4.568;2022-10-31T07:07:57;13.60;99.90
39815;DHT22;25495;45.948;4.568;2022-10-31T07:10:25;13.50;99.90
39815;DHT22;25495;45.948;4.568;2022-10-31T07:12:58;13.60;99.90
39815;DHT22;25495;45.948;4.568;2022-10-31T07:15:26;13.60;99.90
39815;DHT22;25495;45.948;4.568;2022-10-31T07:17:52;13.60;99.90
39815;DHT22;25495;45.948;4.568;2022-10-31T07:20:18;13.60;99.90
39815;DHT22;25495;45.948;4.568;2022-10-31T07:22:44;13.50;99.90
39815;DHT22;25495;45.948;4.568;2022-10-31T07:25:10;13.60;99.90
39815;DHT22;25495;45.948;4.568;2022-10-31T07:27:41;13.60;99.90
39815;DHT22;25495;45.948;4.568;2022-10-31T07:30:08;13.60;99.90
39815;DHT22;25495;45.948;4.568;2022-10-31T07:32:41;13.60;99.90
39815;DHT22;25495;45.948;4.568;2022-10-31T07:35:08;13.60;99.90
39815;DHT22;25495;45.948;4.568;2022-10-31T07:37:35;13.70;99.90
39815;DHT22;25495;45.948;4.568;2022-10-31T07:40:02;13.80;99.90
39815;DHT22;25495;45.948;4.568;2022-10-31T07:42:28;14.00;99.90
39815;DHT22;25495;45.948;4.568;2022-10-31T07:44:54;14.00;99.90
39815;DHT22;25495;45.948;4.568;2022-10-31T07:47:20;14.00;99.90
39815;DHT22;25495;45.948;4.568;2022-10-31T07:49:45;14.20;99.90
39815;DHT22;25495;45.948;4.568;2022-10-31T07:52:11;14.30;99.90
39815;DHT22;25495;45.948;4.568;2022-10-31T07:54:37;14.40;99.90
39815;DHT22;25495;45.948;4.568;2022-10-31T07:57:03;14.30;99.90
39815;DHT22;25495;45.948;4.568;2022-10-31T07:59:28;14.40;99.90
39815;DHT22;25495;45.948;4.568;2022-10-31T08:01:54;14.40;99.90
39815;DHT22;25495;45.948;4.568;2022-10-31T08:04:20;14.40;99.90
39815;DHT22;25495;45.948;4.568;2022-10-31T08:06:45;14.40;99.90
39815;DHT22;25495;45.948;4.568;2022-10-31T08:09:13;14.50;99.90
39815;DHT22;25495;45.948;4.568;2022-10-31T08:11:39;14.80;99.90
39815;DHT22;25495;45.948;4.568;2022-10-31T08:14:05;15.20;99.90
39815;DHT22;25495;45.948;4.568;2022-10-31T08:16:31;15.40;99.90
39815;DHT22;25495;45.948;4.568;2022-10-31T08:18:57;15.70;99.90
39815;DHT22;25495;45.948;4.568;2022-10-31T08:21:22;15.70;99.90
39815;DHT22;25495;45.948;4.568;2022-10-31T08:23:48;15.80;99.90
39815;DHT22;25495;45.948;4.568;2022-10-31T08:26:14;15.90;99.90
39815;DHT22;25495;45.948;4.568;2022-10-31T08:31:06;16.30;99.90
39815;DHT22;25495;45.948;4.568;2022-10-31T08:33:32;16.40;99.90
39815;DHT22;25495;45.948;4.568;2022-10-31T08:35:58;16.30;99.90
39815;DHT22;25495;45.948;4.568;2022-10-31T08:38:24;16.40;99.90
39815;DHT22;25495;45.948;4.568;2022-10-31T08:40:50;16.70;99.90
39815;DHT22;25495;45.948;4.568;2022-10-31T08:43:17;16.60;99.90
39815;DHT22;25495;45.948;4.568;2022-10-31T08:45:44;16.60;99.90
39815;DHT22;25495;45.948;4.568;2022-10-31T08:48:15;16.60;99.90
39815;DHT22;25495;45.948;4.568;2022-10-31T08:50:42;16.60;99.90
39815;DHT22;25495;45.948;4.568;2022-10-31T08:53:16;16.70;99.90
39815;DHT22;25495;45.948;4.568;2022-10-31T08:55:43;16.90;99.90
39815;DHT22;25495;45.948;4.568;2022-10-31T08:58:14;16.90;99.90
39815;DHT22;25495;45.948;4.568;2022-10-31T09:00:42;16.90;99.90
39815;DHT22;25495;45.948;4.568;2022-10-31T09:03:15;16.70;99.90
39815;DHT22;25495;45.948;4.568;2022-10-31T09:05:42;16.70;99.90
39815;DHT22;25495;45.948;4.568;2022-10-31T09:08:08;17.10;99.90
39815;DHT22;25495;45.948;4.568;2022-10-31T09:10:36;17.40;99.90
39815;DHT22;25495;45.948;4.568;2022-10-31T09:13:08;17.80;99.90
39815;DHT22;25495;45.948;4.568;2022-10-31T09:15:36;17.60;99.90
39815;DHT22;25495;45.948;4.568;2022-10-31T09:20:31;18.40;99.90
39815;DHT22;25495;45.948;4.568;2022-10-31T09:23:05;18.50;99.90
39815;DHT22;25495;45.948;4.568;2022-10-31T09:25:33;18.80;99.90
39815;DHT22;25495;45.948;4.568;2022-10-31T09:28:00;18.70;99.90
39815;DHT22;25495;45.948;4.568;2022-10-31T09:30:28;19.00;99.90
39815;DHT22;25495;45.948;4.568;2022-10-31T09:33:03;18.90;99.90
39815;DHT22;25495;45.948;4.568;2022-10-31T09:35:29;18.90;99.90
39815;DHT22;25495;45.948;4.568;2022-10-31T09:37:55;18.90;99.90
39815;DHT22;25495;45.948;4.568;2022-10-31T09:40:24;19.00;99.90
39815;DHT22;25495;45.948;4.568;2022-10-31T09:43:26;19.30;99.90
39815;DHT22;25495;45.948;4.568;2022-10-31T09:51:44;19.00;99.90
39815;DHT22;25495;45.948;4.568;2022-10-31T09:54:17;18.90;99.90
39815;DHT22;25495;45.948;4.568;2022-10-31T09:56:45;19.20;99.90
39815;DHT22;25495;45.948;4.568;2022-10-31T10:02:26;19.20;99.90
39815;DHT22;25495;45.948;4.568;2022-10-31T10:04:54;19.30;99.90
39815;DHT22;25495;45.948;4.568;2022-10-31T10:18:58;19.30;99.90
39815;DHT22;25495;45.948;4.568;2022-10-31T10:29:37;19.10;99.90
39815;DHT22;25495;45.948;4.568;2022-10-31T10:32:18;19.00;99.90
39815;DHT22;25495;45.948;4.568;2022-10-31T10:34:51;19.00;99.90
39815;DHT22;25495;45.948;4.568;2022-10-31T10:37:32;19.00;99.90
39815;DHT22;25495;45.948;4.568;2022-10-31T10:40:21;19.10;99.90
39815;DHT22;25495;45.948;4.568;2022-10-31T10:43:29;19.30;99.90
39815;DHT22;25495;45.948;4.568;2022-10-31T10:49:23;19.80;99.90
39815;DHT22;25495;45.948;4.568;2022-10-31T10:51:58;19.80;99.90
39815;DHT22;25495;45.948;4.568;2022-10-31T10:57:56;20.00;99.90
39815;DHT22;25495;45.948;4.568;2022-10-31T11:00:43;20.30;99.90
39815;DHT22;25495;45.948;4.568;2022-10-31T11:08:08;20.60;99.90
39815;DHT22;25495;45.948;4.568;2022-10-31T11:10:34;20.60;99.90
39815;DHT22;25495;45.948;4.568;2022-10-31T11:15:49;21.00;99.90
39815;DHT22;25495;45.948;4.568;2022-10-31T11:18:22;20.90;99.90
39815;DHT22;25495;45.948;4.568;2022-10-31T11:20:54;21.30;99.90
39815;DHT22;25495;45.948;4.568;2022-10-31T11:23:22;21.20;99.90
39815;DHT22;25495;45.948;4.568;2022-10-31T11:26:16;21.30;99.90
39815;DHT22;25495;45.948;4.568;2022-10-31T11:28:43;20.70;99.90
39815;DHT22;25495;45.948;4.568;2022-10-31T11:31:12;20.20;99.90
39815;DHT22;25495;45.948;4.568;2022-10-31T11:33:46;20.10;99.90
39815;DHT22;25495;45.948;4.568;2022-10-31T11:36:27;20.10;99.90
39815;DHT22;25495;45.948;4.568;2022-10-31T11:38:55;20.00;99.90
39815;DHT22;25495;45.948;4.568;2022-10-31T11:46:38;20.10;99.90
39815;DHT22;25495;45.948;4.568;2022-10-31T11:49:15;20.00;99.90
39815;DHT22;25495;45.948;4.568;2022-10-31T11:51:42;20.00;99.90
39815;DHT22;25495;45.948;4.568;2022-10-31T11:54:29;20.00;99.90
39815;DHT22;25495;45.948;4.568;2022-10-31T11:56:56;20.00;99.90
39815;DHT22;25495;45.948;4.568;2022-10-31T11:59:26;20.00;99.90
39815;DHT22;25495;45.948;4.568;2022-10-31T12:01:54;20.00;99.90
39815;DHT22;25495;45.948;4.568;2022-10-31T12:04:41;20.00;99.90
39815;DHT22;25495;45.948;4.568;2022-10-31T12:07:10;19.90;99.90
39815;DHT22;25495;45.948;4.568;2022-10-31T12:09:36;19.90;99.90
39815;DHT22;25495;45.948;4.568;2022-10-31T12:12:30;19.90;99.90
39815;DHT22;25495;45.948;4.568;2022-10-31T12:28:17;20.50;99.90
39815;DHT22;25495;45.948;4.568;2022-10-31T12:33:43;20.80;99.90
39815;DHT22;25495;45.948;4.568;2022-10-31T12:39:09;21.10;99.90
39815;DHT22;25495;45.948;4.568;2022-10-31T12:41:47;21.20;99.90
39815;DHT22;25495;45.948;4.568;2022-10-31T12:44:36;21.10;99.90
39815;DHT22;25495;45.948;4.568;2022-10-31T12:58:00;20.80;99.90
39815;DHT22;25495;45.948;4.568;2022-10-31T13:00:28;20.80;99.90
39815;DHT22;25495;45.948;4.568;2022-10-31T13:03:27;20.80;99.90
39815;DHT22;25495;45.948;4.568;2022-10-31T13:06:02;20.80;99.90
39815;DHT22;25495;45.948;4.568;2022-10-31T13:08:38;20.80;99.90
39815;DHT22;25495;45.948;4.568;2022-10-31T13:11:49;21.00;99.90
39815;DHT22;25495;45.948;4.568;2022-10-31T13:16:46;20.70;99.90
39815;DHT22;25495;45.948;4.568;2022-10-31T13:27:13;20.70;99.90
39815;DHT22;25495;45.948;4.568;2022-10-31T13:32:26;20.70;99.90
39815;DHT22;25495;45.948;4.568;2022-10-31T13:34:56;20.80;99.90
39815;DHT22;25495;45.948;4.568;2022-10-31T13:37:39;20.90;99.90
39815;DHT22;25495;45.948;4.568;2022-10-31T13:40:31;20.90;99.90
39815;DHT22;25495;45.948;4.568;2022-10-31T13:45:49;21.10;99.90
39815;DHT22;25495;45.948;4.568;2022-10-31T13:50:42;20.70;99.90
39815;DHT22;25495;45.948;4.568;2022-10-31T13:55:45;20.40;99.90
39815;DHT22;25495;45.948;4.568;2022-10-31T13:58:38;20.30;99.90
39815;DHT22;25495;45.948;4.568;2022-10-31T14:03:38;20.20;99.90
39815;DHT22;25495;45.948;4.568;2022-10-31T14:06:07;20.20;99.90
39815;DHT22;25495;45.948;4.568;2022-10-31T14:08:36;20.20;99.90
39815;DHT22;25495;45.948;4.568;2022-10-31T14:11:03;20.10;99.90
39815;DHT22;25495;45.948;4.568;2022-10-31T14:13:36;20.10;99.90
39815;DHT22;25495;45.948;4.568;2022-10-31T14:16:05;20.20;99.90
39815;DHT22;25495;45.948;4.568;2022-10-31T14:18:37;20.20;99.90
39815;DHT22;25495;45.948;4.568;2022-10-31T14:26:19;19.90;99.90
39815;DHT22;25495;45.948;4.568;2022-10-31T14:31:39;19.70;99.90
39815;DHT22;25495;45.948;4.568;2022-10-31T14:39:30;19.40;99.90
39815;DHT22;25495;45.948;4.568;2022-10-31T14:42:13;19.20;99.90
39815;DHT22;25495;45.948;4.568;2022-10-31T14:47:36;19.10;99.90
39815;DHT22;25495;45.948;4.568;2022-10-31T14:52:56;19.30;99.90
39815;DHT22;25495;45.948;4.568;2022-10-31T14:55:23;19.40;99.90
39815;DHT22;25495;45.948;4.568;2022-10-31T14:57:59;19.50;99.90
39815;DHT22;25495;45.948;4.568;2022-10-31T15:00:26;19.50;99.90
39815;DHT22;25495;45.948;4.568;2022-10-31T15:03:15;19.40;99.90
39815;DHT22;25495;45.948;4.568;2022-10-31T15:05:52;19.30;99.90
39815;DHT22;25495;45.948;4.568;2022-10-31T15:08:35;19.20;99.90
39815;DHT22;25495;45.948;4.568;2022-10-31T15:11:36;19.10;99.90
39815;DHT22;25495;45.948;4.568;2022-10-31T15:21:44;19.00;99.90
39815;DHT22;25495;45.948;4.568;2022-10-31T15:26:54;18.90;99.90
39815;DHT22;25495;45.948;4.568;2022-10-31T15:32:01;18.70;99.90
39815;DHT22;25495;45.948;4.568;2022-10-31T15:34:42;18.70;99.90
39815;DHT22;25495;45.948;4.568;2022-10-31T15:37:13;18.70;99.90
39815;DHT22;25495;45.948;4.568;2022-10-31T15:39:40;18.60;99.90
39815;DHT22;25495;45.948;4.568;2022-10-31T15:47:29;18.40;99.90
39815;DHT22;25495;45.948;4.568;2022-10-31T15:49:57;18.40;99.90
39815;DHT22;25495;45.948;4.568;2022-10-31T15:52:39;18.40;99.90
39815;DHT22;25495;45.948;4.568;2022-10-31T15:57:41;18.20;99.90
39815;DHT22;25495;45.948;4.568;2022-10-31T16:00:31;18.10;99.90
39815;DHT22;25495;45.948;4.568;2022-10-31T16:03:24;18.10;99.90
39815;DHT22;25495;45.948;4.568;2022-10-31T16:05:56;18.10;99.90
39815;DHT22;25495;45.948;4.568;2022-10-31T16:11:00;18.00;99.90
39815;DHT22;25495;45.948;4.568;2022-10-31T16:13:52;18.00;99.90
39815;DHT22;25495;45.948;4.568;2022-10-31T16:16:19;18.00;99.90
39815;DHT22;25495;45.948;4.568;2022-10-31T16:18:49;18.00;99.90
39815;DHT22;25495;45.948;4.568;2022-10-31T16:21:27;17.90;99.90
39815;DHT22;25495;45.948;4.568;2022-10-31T16:23:59;17.90;99.90
39815;DHT22;25495;45.948;4.568;2022-10-31T16:26:25;17.90;99.90
39815;DHT22;25495;45.948;4.568;2022-10-31T16:28:54;17.90;99.90
39815;DHT22;25495;45.948;4.568;2022-10-31T16:31:38;17.80;99.90
39815;DHT22;25495;45.948;4.568;2022-10-31T16:34:17;17.90;99.90
39815;DHT22;25495;45.948;4.568;2022-10-31T16:36:45;17.90;99.90
39815;DHT22;25495;45.948;4.568;2022-10-31T16:39:10;17.90;99.90
39815;DHT22;25495;45.948;4.568;2022-10-31T16:41:41;17.90;99.90
39815;DHT22;25495;45.948;4.568;2022-10-31T16:44:23;17.80;99.90
39815;DHT22;25495;45.948;4.568;2022-10-31T16:47:13;17.80;99.90
39815;DHT22;25495;45.948;4.568;2022-10-31T16:49:40;17.80;99.90
39815;DHT22;25495;45.948;4.568;2022-10-31T16:52:07;17.70;99.90
39815;DHT22;25495;45.948;4.568;2022-10-31T16:54:33;17.70;99.90
39815;DHT22;25495;45.948;4.568;2022-10-31T16:57:00;17.80;99.90
39815;DHT22;25495;45.948;4.568;2022-10-31T16:59:26;17.70;99.90
39815;DHT22;25495;45.948;4.568;2022-10-31T17:01:53;17.70;99.90
39815;DHT22;25495;45.948;4.568;2022-10-31T17:04:19;17.70;99.90
39815;DHT22;25495;45.948;4.568;2022-10-31T17:06:45;17.60;99.90
39815;DHT22;25495;45.948;4.568;2022-10-31T17:09:10;17.60;99.90
39815;DHT22;25495;45.948;4.568;2022-10-31T17:11:39;17.60;99.90
39815;DHT22;25495;45.948;4.568;2022-10-31T17:14:07;17.60;99.90
39815;DHT22;25495;45.948;4.568;2022-10-31T17:16:33;17.60;99.90
39815;DHT22;25495;45.948;4.568;2022-10-31T17:18:59;17.60;99.90
39815;DHT22;25495;45.948;4.568;2022-10-31T17:21:25;17.60;99.90
39815;DHT22;25495;45.948;4.568;2022-10-31T17:23:52;17.50;99.90
39815;DHT22;25495;45.948;4.568;2022-10-31T17:26:19;17.40;99.90
39815;DHT22;25495;45.948;4.568;2022-10-31T17:28:45;17.40;99.90
39815;DHT22;25495;45.948;4.568;2022-10-31T17:33:49;17.30;99.90
39815;DHT22;25495;45.948;4.568;2022-10-31T17:36:15;17.30;99.90
39815;DHT22;25495;45.948;4.568;2022-10-31T17:38:41;17.20;99.90
39815;DHT22;25495;45.948;4.568;2022-10-31T17:41:07;17.20;99.90
39815;DHT22;25495;45.948;4.568;2022-10-31T17:43:33;17.20;99.90
39815;DHT22;25495;45.948;4.568;2022-10-31T17:45:59;17.20;99.90
39815;DHT22;25495;45.948;4.568;2022-10-31T17:48:28;17.20;99.90
39815;DHT22;25495;45.948;4.568;2022-10-31T17:50:54;17.30;99.90
39815;DHT22;25495;45.948;4.568;2022-10-31T17:53:20;17.40;99.90
39815;DHT22;25495;45.948;4.568;2022-10-31T17:55:45;17.40;99.90
39815;DHT22;25495;45.948;4.568;2022-10-31T17:58:11;17.40;99.90
39815;DHT22;25495;45.948;4.568;2022-10-31T18:00:38;17.30;99.90
39815;DHT22;25495;45.948;4.568;2022-10-31T18:03:06;17.40;99.90
39815;DHT22;25495;45.948;4.568;2022-10-31T18:05:32;17.40;99.90
39815;DHT22;25495;45.948;4.568;2022-10-31T18:07:58;17.40;99.90
39815;DHT22;25495;45.948;4.568;2022-10-31T18:10:24;17.40;99.90
39815;DHT22;25495;45.948;4.568;2022-10-31T18:12:50;17.50;99.90
39815;DHT22;25495;45.948;4.568;2022-10-31T18:15:16;17.50;99.90
39815;DHT22;25495;45.948;4.568;2022-10-31T18:17:43;17.40;99.90
39815;DHT22;25495;45.948;4.568;2022-10-31T18:20:10;17.70;99.90
39815;DHT22;25495;45.948;4.568;2022-10-31T18:22:36;17.70;99.90
39815;DHT22;25495;45.948;4.568;2022-10-31T18:25:03;17.70;99.90
39815;DHT22;25495;45.948;4.568;2022-10-31T18:27:29;17.70;99.90
39815;DHT22;25495;45.948;4.568;2022-10-31T18:29:54;17.80;99.90
39815;DHT22;25495;45.948;4.568;2022-10-31T18:32:20;17.70;99.90
39815;DHT22;25495;45.948;4.568;2022-10-31T18:34:46;17.80;99.90
39815;DHT22;25495;45.948;4.568;2022-10-31T18:37:12;17.90;99.90
39815;DHT22;25495;45.948;4.568;2022-10-31T18:39:40;17.90;99.90
39815;DHT22;25495;45.948;4.568;2022-10-31T18:42:06;18.00;99.90
39815;DHT22;25495;45.948;4.568;2022-10-31T18:44:32;18.10;99.90